createdAt,value
2023-01-21T00:01:11.455Z,-2.60
2023-01-21T00:03:38.999Z,-2.60
2023-01-21T00:06:07.017Z,-2.60
2023-01-21T00:08:34.259Z,-2.60
2023-01-21T00:11:07.516Z,-2.70
2023-01-21T00:13:35.973Z,-2.70
2023-01-21T00:16:04.857Z,-2.70
2023-01-21T00:18:33.058Z,-2.70
2023-01-21T00:21:01.208Z,-2.80
2023-01-21T00:23:28.804Z,-2.70
2023-01-21T00:25:59.555Z,-2.70
2023-01-21T00:28:33.523Z,-2.80
2023-01-21T00:31:03.569Z,-2.80
2023-01-21T00:33:32.323Z,-2.80
2023-01-21T00:36:02.146Z,-2.80
2023-01-21T00:38:30.995Z,-2.70
2023-01-21T00:41:03.492Z,-2.70
2023-01-21T00:43:30.920Z,-2.70
2023-01-21T00:45:59.084Z,-2.80
2023-01-21T00:48:28.867Z,-2.70
2023-01-21T00:51:00.749Z,-2.80
2023-01-21T00:53:31.532Z,-2.80
2023-01-21T00:56:00.629Z,-2.70
2023-01-21T00:58:28.682Z,-2.80
2023-01-21T01:01:05.612Z,-2.80
2023-01-21T01:03:33.485Z,-2.80
2023-01-21T01:06:04.204Z,-2.80
2023-01-21T01:08:31.812Z,-2.80
2023-01-21T01:11:00.098Z,-2.80
2023-01-21T01:13:28.117Z,-2.80
2023-01-21T01:15:58.348Z,-2.90
2023-01-21T01:18:26.908Z,-3.00
2023-01-21T01:20:54.907Z,-3.00
2023-01-21T01:23:22.821Z,-3.00
2023-01-21T01:26:00.474Z,-3.00
2023-01-21T01:28:28.634Z,-3.00
2023-01-21T01:30:57.542Z,-3.00
2023-01-21T01:33:25.876Z,-2.90
2023-01-21T01:35:53.468Z,-3.00
2023-01-21T01:38:23.373Z,-3.00
2023-01-21T01:40:53.683Z,-3.00
2023-01-21T01:43:27.465Z,-3.10
2023-01-21T01:45:55.569Z,-3.20
2023-01-21T01:48:26.424Z,-3.10
2023-01-21T01:50:55.206Z,-3.10
2023-01-21T01:53:23.438Z,-3.10
2023-01-21T01:55:51.252Z,-3.10
2023-01-21T01:58:21.000Z,-3.10
2023-01-21T02:00:49.209Z,-3.20
2023-01-21T02:03:38.006Z,-3.20
2023-01-21T02:06:05.869Z,-3.20
2023-01-21T02:08:34.582Z,-3.20
2023-01-21T02:11:02.823Z,-3.20
2023-01-21T02:13:31.925Z,-3.20
2023-01-21T02:16:22.287Z,-3.20
2023-01-21T02:18:57.885Z,-3.30
2023-01-21T02:21:52.687Z,-3.30
2023-01-21T02:24:37.398Z,-3.30
2023-01-21T02:27:32.829Z,-3.40
2023-01-21T02:30:32.108Z,-3.40
2023-01-21T02:33:24.751Z,-3.50
2023-01-21T02:36:11.305Z,-3.50
2023-01-21T02:38:45.945Z,-3.60
2023-01-21T02:41:33.263Z,-3.70
2023-01-21T02:44:08.146Z,-3.70
2023-01-21T02:46:42.883Z,-3.70
2023-01-21T02:49:21.540Z,-3.70
2023-01-21T02:51:49.978Z,-3.80
2023-01-21T02:54:40.843Z,-3.70
2023-01-21T02:57:15.763Z,-3.70
2023-01-21T02:59:47.977Z,-3.70
2023-01-21T03:02:39.044Z,-3.60
2023-01-21T03:05:20.421Z,-3.60
2023-01-21T03:07:54.385Z,-3.60
2023-01-21T03:10:28.871Z,-3.50
2023-01-21T03:13:01.280Z,-3.50
2023-01-21T03:15:53.885Z,-3.60
2023-01-21T03:18:36.359Z,-3.60
2023-01-21T03:21:07.679Z,-3.60
2023-01-21T03:23:39.132Z,-3.70
2023-01-21T03:26:10.105Z,-3.70
2023-01-21T03:28:45.849Z,-3.70
2023-01-21T03:31:19.992Z,-3.80
2023-01-21T03:33:51.133Z,-3.80
2023-01-21T03:36:45.666Z,-3.90
2023-01-21T03:39:37.933Z,-3.90
2023-01-21T03:42:05.922Z,-3.90
2023-01-21T03:44:34.038Z,-3.90
2023-01-21T03:47:08.459Z,-3.90
2023-01-21T03:49:40.455Z,-3.90
2023-01-21T03:52:09.337Z,-3.90
2023-01-21T03:54:37.099Z,-3.90
2023-01-21T03:57:04.478Z,-3.80
2023-01-21T03:59:31.922Z,-3.80
2023-01-21T04:01:59.280Z,-3.70
2023-01-21T04:04:26.708Z,-3.70
2023-01-21T04:06:53.996Z,-3.70
2023-01-21T04:09:21.453Z,-3.70
2023-01-21T04:11:48.967Z,-3.70
2023-01-21T04:14:16.648Z,-3.60
2023-01-21T04:16:44.263Z,-3.60
2023-01-21T04:19:11.995Z,-3.50
2023-01-21T04:21:39.455Z,-3.40
2023-01-21T04:24:07.396Z,-3.40
2023-01-21T04:26:34.921Z,-3.30
2023-01-21T04:29:02.849Z,-3.30
2023-01-21T04:31:30.673Z,-3.20
2023-01-21T04:33:58.331Z,-3.20
2023-01-21T04:36:26.209Z,-3.10
2023-01-21T04:38:53.433Z,-3.10
2023-01-21T04:41:23.410Z,-3.00
2023-01-21T04:43:52.173Z,-3.00
2023-01-21T04:46:19.647Z,-2.90
2023-01-21T04:48:47.196Z,-2.90
2023-01-21T04:51:14.883Z,-2.90
2023-01-21T04:53:42.423Z,-2.80
2023-01-21T04:56:09.832Z,-2.80
2023-01-21T04:58:37.124Z,-2.80
2023-01-21T05:01:04.775Z,-2.70
2023-01-21T05:03:32.425Z,-2.70
2023-01-21T05:05:59.909Z,-2.70
2023-01-21T05:08:27.274Z,-2.80
2023-01-21T05:10:54.854Z,-2.80
2023-01-21T05:13:22.197Z,-2.70
2023-01-21T05:15:49.516Z,-2.80
2023-01-21T05:18:16.736Z,-2.80
2023-01-21T05:20:43.934Z,-2.80
2023-01-21T05:23:11.281Z,-2.80
2023-01-21T05:25:38.559Z,-2.80
2023-01-21T05:28:05.755Z,-2.80
2023-01-21T05:30:33.089Z,-2.80
2023-01-21T05:33:00.318Z,-2.70
2023-01-21T05:35:27.845Z,-2.70
2023-01-21T05:37:55.221Z,-2.70
2023-01-21T05:40:22.719Z,-2.60
2023-01-21T05:42:50.121Z,-2.60
2023-01-21T05:45:17.491Z,-2.60
2023-01-21T05:47:44.873Z,-2.60
2023-01-21T05:50:13.116Z,-2.50
2023-01-21T05:52:40.796Z,-2.50
2023-01-21T05:55:08.394Z,-2.50
2023-01-21T05:57:35.806Z,-2.50
2023-01-21T06:00:03.671Z,-2.50
2023-01-21T06:02:32.100Z,-2.50
2023-01-21T06:04:59.659Z,-2.50
2023-01-21T06:07:27.281Z,-2.50
2023-01-21T06:09:54.579Z,-2.50
2023-01-21T06:12:23.892Z,-2.40
2023-01-21T06:14:52.271Z,-2.40
2023-01-21T06:17:19.426Z,-2.40
2023-01-21T06:19:46.910Z,-2.40
2023-01-21T06:22:16.336Z,-2.30
2023-01-21T06:24:43.964Z,-2.30
2023-01-21T06:27:11.527Z,-2.30
2023-01-21T06:29:38.765Z,-2.40
2023-01-21T06:32:06.492Z,-2.30
2023-01-21T06:34:34.067Z,-2.20
2023-01-21T06:37:02.108Z,-2.30
2023-01-21T06:39:29.355Z,-2.20
2023-01-21T06:41:56.826Z,-2.30
2023-01-21T06:44:24.265Z,-2.30
2023-01-21T06:47:00.615Z,-2.30
2023-01-21T06:49:28.375Z,-2.30
2023-01-21T06:51:56.612Z,-2.30
2023-01-21T06:54:24.495Z,-2.20
2023-01-21T06:56:51.865Z,-2.20
2023-01-21T06:59:19.411Z,-2.20
2023-01-21T07:01:47.035Z,-2.20
2023-01-21T07:04:14.462Z,-2.20
2023-01-21T07:06:41.850Z,-2.20
2023-01-21T07:09:09.551Z,-2.20
2023-01-21T07:11:37.125Z,-2.10
2023-01-21T07:14:04.533Z,-2.10
2023-01-21T07:16:32.193Z,-2.00
2023-01-21T07:18:59.461Z,-2.00
2023-01-21T07:21:26.905Z,-2.00
2023-01-21T07:23:55.733Z,-2.00
2023-01-21T07:26:23.381Z,-2.00
2023-01-21T07:28:50.631Z,-2.00
2023-01-21T07:31:18.034Z,-1.90
2023-01-21T07:33:45.353Z,-1.90
2023-01-21T07:36:12.900Z,-1.80
2023-01-21T07:38:40.220Z,-1.60
2023-01-21T07:41:07.468Z,-1.60
2023-01-21T07:43:34.747Z,-1.50
2023-01-21T07:46:02.224Z,-1.30
2023-01-21T07:48:29.777Z,-1.30
2023-01-21T07:50:58.922Z,-1.20
2023-01-21T07:53:27.170Z,-1.10
2023-01-21T07:55:54.513Z,-1.00
2023-01-21T07:58:21.892Z,-1.00
2023-01-21T08:00:49.055Z,-0.90
2023-01-21T08:03:20.286Z,-0.80
2023-01-21T08:05:47.933Z,-0.70
2023-01-21T08:08:15.359Z,-0.70
2023-01-21T08:10:43.048Z,-0.60
2023-01-21T08:13:10.391Z,-0.60
2023-01-21T08:15:37.625Z,-0.50
2023-01-21T08:18:04.936Z,-0.40
2023-01-21T08:20:32.437Z,-0.40
2023-01-21T08:23:00.754Z,-0.40
2023-01-21T08:25:28.021Z,-0.30
2023-01-21T08:27:55.160Z,-0.30
2023-01-21T08:30:22.852Z,-0.30
2023-01-21T08:32:50.211Z,-0.20
2023-01-21T08:35:17.800Z,-0.20
2023-01-21T08:37:45.537Z,-0.20
2023-01-21T08:40:13.403Z,-0.20
2023-01-21T08:42:40.763Z,-0.20
2023-01-21T08:45:08.704Z,-0.20
2023-01-21T08:47:36.134Z,-0.30
2023-01-21T08:50:03.699Z,-0.40
2023-01-21T08:52:30.976Z,-0.40
2023-01-21T08:54:58.893Z,-0.40
2023-01-21T08:57:27.817Z,-0.40
2023-01-21T08:59:55.306Z,-0.40
2023-01-21T09:02:22.709Z,-0.40
2023-01-21T09:04:50.782Z,-0.40
2023-01-21T09:07:18.603Z,-0.30
2023-01-21T09:09:47.752Z,-0.20
2023-01-21T09:12:15.247Z,-0.10
2023-01-21T09:14:42.560Z,0.10
2023-01-21T09:17:11.107Z,0.20
2023-01-21T09:19:38.466Z,0.30
2023-01-21T09:22:09.323Z,0.50
2023-01-21T09:24:36.682Z,0.60
2023-01-21T09:27:10.167Z,0.70
2023-01-21T09:29:37.593Z,0.80
2023-01-21T09:32:05.589Z,0.90
2023-01-21T09:34:35.585Z,1.00
2023-01-21T09:37:05.207Z,1.10
2023-01-21T09:39:32.532Z,1.10
2023-01-21T09:41:59.917Z,1.20
2023-01-21T09:44:44.071Z,1.30
2023-01-21T09:47:23.956Z,1.30
2023-01-21T09:50:08.677Z,1.40
2023-01-21T09:52:41.567Z,1.40
2023-01-21T09:55:33.630Z,1.30
2023-01-21T09:58:21.783Z,1.20
2023-01-21T10:00:56.562Z,1.30
2023-01-21T10:03:43.705Z,1.40
2023-01-21T10:06:30.576Z,1.60
2023-01-21T10:09:02.851Z,1.70
2023-01-21T10:11:41.013Z,1.90
2023-01-21T10:14:38.894Z,1.90
2023-01-21T10:17:10.040Z,1.90
2023-01-21T10:19:44.061Z,1.90
2023-01-21T10:22:17.449Z,1.80
2023-01-21T10:25:10.410Z,1.70
2023-01-21T10:27:38.796Z,1.70
2023-01-21T10:30:20.582Z,1.70
2023-01-21T10:32:51.866Z,1.80
2023-01-21T10:35:24.918Z,1.70
2023-01-21T10:38:05.472Z,1.70
2023-01-21T10:40:43.749Z,1.70
2023-01-21T10:43:22.592Z,1.80
2023-01-21T10:46:17.692Z,1.90
2023-01-21T10:49:11.284Z,2.00
2023-01-21T10:51:54.503Z,2.00
2023-01-21T10:54:28.214Z,2.20
2023-01-21T10:56:57.790Z,2.40
2023-01-21T10:59:33.012Z,2.30
2023-01-21T11:02:10.154Z,2.20
2023-01-21T11:04:41.088Z,2.20
2023-01-21T11:07:12.269Z,2.30
2023-01-21T11:09:46.650Z,2.40
2023-01-21T11:12:19.454Z,2.40
2023-01-21T11:15:13.561Z,2.50
2023-01-21T11:17:44.155Z,2.40
2023-01-21T11:20:22.860Z,2.40
2023-01-21T11:22:51.682Z,2.30
2023-01-21T11:25:34.937Z,2.30
2023-01-21T11:28:03.408Z,2.20
2023-01-21T11:30:50.590Z,2.20
2023-01-21T11:33:19.600Z,2.30
2023-01-21T11:35:47.097Z,2.40
2023-01-21T11:38:36.337Z,2.50
2023-01-21T11:41:08.797Z,2.40
2023-01-21T11:43:41.282Z,2.30
2023-01-21T11:46:39.749Z,2.30
2023-01-21T11:49:10.306Z,2.30
2023-01-21T11:51:40.598Z,2.20
2023-01-21T11:54:14.566Z,2.20
2023-01-21T11:56:51.905Z,2.10
2023-01-21T11:59:28.165Z,2.20
2023-01-21T12:02:04.847Z,2.20
2023-01-21T12:04:33.234Z,2.20
2023-01-21T12:07:01.105Z,2.20
2023-01-21T12:09:29.708Z,2.10
2023-01-21T12:12:14.320Z,2.10
2023-01-21T12:14:47.793Z,2.00
2023-01-21T12:17:33.014Z,1.80
2023-01-21T12:20:12.451Z,1.90
2023-01-21T12:22:55.748Z,1.90
2023-01-21T12:25:47.875Z,1.90
2023-01-21T12:28:55.215Z,1.90
2023-01-21T12:31:46.502Z,1.90
2023-01-21T12:34:25.887Z,1.80
2023-01-21T12:36:59.396Z,1.80
2023-01-21T12:39:32.478Z,1.70
2023-01-21T12:42:05.217Z,1.80
2023-01-21T12:44:39.256Z,1.80
2023-01-21T12:47:18.325Z,1.80
2023-01-21T12:49:53.444Z,1.70
2023-01-21T12:52:27.427Z,1.60
2023-01-21T12:55:16.537Z,1.70
2023-01-21T12:57:52.792Z,1.60
2023-01-21T13:00:30.172Z,1.60
2023-01-21T13:03:16.230Z,1.60
2023-01-21T13:05:48.396Z,1.50
2023-01-21T13:08:41.636Z,1.50
2023-01-21T13:11:19.087Z,1.60
2023-01-21T13:13:56.539Z,1.50
2023-01-21T13:16:26.741Z,1.50
2023-01-21T13:18:55.775Z,1.50
2023-01-21T13:21:36.492Z,1.50
2023-01-21T13:24:04.029Z,1.50
2023-01-21T13:26:58.462Z,1.40
2023-01-21T13:29:37.211Z,1.40
2023-01-21T13:32:15.371Z,1.40
2023-01-21T13:34:49.621Z,1.30
2023-01-21T13:37:30.135Z,1.30
2023-01-21T13:40:25.336Z,1.20
2023-01-21T13:42:53.811Z,1.20
2023-01-21T13:45:22.232Z,1.20
2023-01-21T13:47:58.515Z,1.20
2023-01-21T13:51:05.903Z,1.10
2023-01-21T13:53:52.645Z,1.00
2023-01-21T13:56:20.936Z,1.10
2023-01-21T13:58:51.057Z,1.10
2023-01-21T14:01:34.877Z,1.00
2023-01-21T14:04:08.071Z,1.00
2023-01-21T14:07:00.850Z,1.00
2023-01-21T14:09:38.451Z,0.90
2023-01-21T14:12:18.434Z,0.90
2023-01-21T14:14:55.855Z,0.80
2023-01-21T14:17:42.552Z,0.80
2023-01-21T14:20:29.484Z,0.80
2023-01-21T14:23:33.091Z,0.80
2023-01-21T14:26:24.008Z,0.80
2023-01-21T14:29:06.862Z,0.80
2023-01-21T14:31:41.725Z,0.90
2023-01-21T14:34:20.093Z,0.80
2023-01-21T14:37:03.034Z,0.90
2023-01-21T14:39:59.647Z,0.80
2023-01-21T14:42:49.546Z,0.80
2023-01-21T14:45:23.826Z,0.70
2023-01-21T14:47:55.420Z,0.70
2023-01-21T14:50:44.921Z,0.60
2023-01-21T14:53:19.494Z,0.60
2023-01-21T14:56:05.152Z,0.60
2023-01-21T14:58:34.874Z,0.60
2023-01-21T15:01:04.271Z,0.60
2023-01-21T15:03:32.275Z,0.60
2023-01-21T15:06:09.295Z,0.50
2023-01-21T15:08:46.206Z,0.50
2023-01-21T15:11:27.794Z,0.50
2023-01-21T15:14:15.077Z,0.50
2023-01-21T15:16:44.484Z,0.40
2023-01-21T15:19:12.579Z,0.40
2023-01-21T15:21:59.971Z,0.40
2023-01-21T15:24:37.208Z,0.40
2023-01-21T15:27:26.072Z,0.40
2023-01-21T15:29:54.383Z,0.40
2023-01-21T15:32:31.080Z,0.40
2023-01-21T15:35:04.303Z,0.40
2023-01-21T15:37:36.739Z,0.40
2023-01-21T15:40:18.618Z,0.40
2023-01-21T15:42:58.623Z,0.40
2023-01-21T15:45:34.951Z,0.40
2023-01-21T15:48:41.305Z,0.50
2023-01-21T15:51:36.792Z,0.50
2023-01-21T15:54:40.201Z,0.50
2023-01-21T15:57:28.917Z,0.50
2023-01-21T16:00:02.879Z,0.50
2023-01-21T16:02:34.094Z,0.40
2023-01-21T16:05:37.417Z,0.40
2023-01-21T16:08:36.542Z,0.40
2023-01-21T16:11:25.795Z,0.50
2023-01-21T16:14:01.722Z,0.50
2023-01-21T16:17:01.834Z,0.50
2023-01-21T16:19:35.365Z,0.50
2023-01-21T16:22:07.751Z,0.50
2023-01-21T16:24:43.303Z,0.50
2023-01-21T16:27:31.855Z,0.50
2023-01-21T16:30:01.166Z,0.50
2023-01-21T16:32:31.030Z,0.50
2023-01-21T16:34:59.902Z,0.50
2023-01-21T16:37:30.481Z,0.50
2023-01-21T16:40:20.437Z,0.50
2023-01-21T16:42:47.733Z,0.50
2023-01-21T16:45:19.214Z,0.50
2023-01-21T16:47:54.268Z,0.60
2023-01-21T16:50:25.792Z,0.50
2023-01-21T16:52:55.055Z,0.50
2023-01-21T16:55:26.023Z,0.50
2023-01-21T16:57:56.106Z,0.40
2023-01-21T17:00:30.525Z,0.50
2023-01-21T17:02:58.605Z,0.50
2023-01-21T17:05:31.829Z,0.50
2023-01-21T17:08:03.016Z,0.50
2023-01-21T17:10:41.151Z,0.50
2023-01-21T17:13:16.173Z,0.50
2023-01-21T17:15:57.660Z,0.50
2023-01-21T17:18:30.318Z,0.50
2023-01-21T17:21:11.041Z,0.50
2023-01-21T17:23:56.231Z,0.50
2023-01-21T17:26:29.926Z,0.50
2023-01-21T17:29:07.990Z,0.50
2023-01-21T17:31:41.431Z,0.50
2023-01-21T17:34:16.259Z,0.50
2023-01-21T17:36:45.806Z,0.50
2023-01-21T17:39:13.451Z,0.50
2023-01-21T17:41:43.870Z,0.50
2023-01-21T17:44:19.514Z,0.60
2023-01-21T17:46:49.370Z,0.60
2023-01-21T17:49:21.216Z,0.60
2023-01-21T17:51:49.387Z,0.60
2023-01-21T17:54:26.591Z,0.70
2023-01-21T17:56:56.536Z,0.70
2023-01-21T17:59:41.700Z,0.70
2023-01-21T18:02:14.694Z,0.60
2023-01-21T18:04:42.963Z,0.60
2023-01-21T18:07:30.295Z,0.60
2023-01-21T18:10:02.459Z,0.60
2023-01-21T18:12:29.931Z,0.60
2023-01-21T18:14:58.743Z,0.60
2023-01-21T18:17:26.384Z,0.60
2023-01-21T18:19:54.060Z,0.60
2023-01-21T18:22:26.218Z,0.60
2023-01-21T18:24:53.758Z,0.60
2023-01-21T18:27:25.694Z,0.60
2023-01-21T18:29:54.270Z,0.70
2023-01-21T18:32:21.662Z,0.70
2023-01-21T18:34:48.879Z,0.70
2023-01-21T18:37:18.523Z,0.60
2023-01-21T18:39:46.984Z,0.60
2023-01-21T18:42:17.605Z,0.60
2023-01-21T18:44:45.433Z,0.60
2023-01-21T18:47:15.966Z,0.60
2023-01-21T18:49:44.514Z,0.60
2023-01-21T18:52:16.141Z,0.60
2023-01-21T18:54:43.624Z,0.60
2023-01-21T18:57:14.765Z,0.60
2023-01-21T18:59:42.575Z,0.60
2023-01-21T19:02:16.173Z,0.60
2023-01-21T19:04:44.076Z,0.50
2023-01-21T19:07:16.534Z,0.50
2023-01-21T19:09:47.062Z,0.60
2023-01-21T19:12:16.935Z,0.60
2023-01-21T19:14:45.002Z,0.50
2023-01-21T19:17:15.271Z,0.60
2023-01-21T19:19:42.550Z,0.60
2023-01-21T19:22:14.418Z,0.50
2023-01-21T19:24:42.118Z,0.60
2023-01-21T19:27:17.455Z,0.60
2023-01-21T19:29:44.925Z,0.50
2023-01-21T19:32:14.851Z,0.50
2023-01-21T19:34:42.769Z,0.50
2023-01-21T19:37:17.835Z,0.50
2023-01-21T19:39:45.696Z,0.50
2023-01-21T19:42:15.765Z,0.50
2023-01-21T19:44:43.506Z,0.50
2023-01-21T19:47:19.060Z,0.50
2023-01-21T19:49:46.826Z,0.40
2023-01-21T19:52:15.287Z,0.50
2023-01-21T19:54:42.701Z,0.50
2023-01-21T19:57:14.558Z,0.50
2023-01-21T19:59:44.485Z,0.50
2023-01-21T20:02:13.254Z,0.40
2023-01-21T20:04:40.551Z,0.50
2023-01-21T20:07:13.979Z,0.40
2023-01-21T20:09:41.543Z,0.50
2023-01-21T20:12:13.129Z,0.50
2023-01-21T20:14:40.716Z,0.50
2023-01-21T20:17:13.160Z,0.50
2023-01-21T20:19:40.975Z,0.50
2023-01-21T20:22:08.286Z,0.50
2023-01-21T20:24:36.536Z,0.50
2023-01-21T20:27:07.830Z,0.50
2023-01-21T20:29:37.829Z,0.40
2023-01-21T20:32:07.200Z,0.40
2023-01-21T20:34:34.999Z,0.40
2023-01-21T20:37:02.525Z,0.40
2023-01-21T20:39:29.874Z,0.40
2023-01-21T20:41:57.844Z,0.40
2023-01-21T20:44:25.622Z,0.40
2023-01-21T20:46:54.201Z,0.50
2023-01-21T20:49:21.759Z,0.40
2023-01-21T20:51:49.138Z,0.40
2023-01-21T20:54:16.661Z,0.40
2023-01-21T20:56:45.746Z,0.40
2023-01-21T20:59:14.876Z,0.40
2023-01-21T21:01:42.563Z,0.40
2023-01-21T21:04:10.217Z,0.40
2023-01-21T21:06:37.652Z,0.30
2023-01-21T21:09:05.802Z,0.30
2023-01-21T21:11:33.409Z,0.20
2023-01-21T21:14:02.117Z,0.20
2023-01-21T21:16:32.293Z,0.20
2023-01-21T21:19:00.960Z,0.10
2023-01-21T21:21:28.858Z,0.00
2023-01-21T21:23:56.205Z,0.00
2023-01-21T21:26:25.999Z,0.00
2023-01-21T21:28:55.146Z,0.00
2023-01-21T21:31:24.226Z,-0.10
2023-01-21T21:33:52.149Z,-0.10
2023-01-21T21:36:22.201Z,-0.10
2023-01-21T21:38:50.671Z,-0.20
2023-01-21T21:41:40.782Z,-0.20
2023-01-21T21:44:10.124Z,-0.20
2023-01-21T21:46:57.771Z,-0.10
2023-01-21T21:49:25.317Z,-0.20
2023-01-21T21:51:53.271Z,-0.10
2023-01-21T21:54:21.182Z,-0.10
2023-01-21T21:59:35.016Z,-0.10
2023-01-21T22:02:06.989Z,-0.10
2023-01-21T22:04:34.245Z,-0.10
2023-01-21T22:07:02.090Z,-0.10
2023-01-21T22:09:29.376Z,-0.10
2023-01-21T22:11:57.096Z,-0.10
2023-01-21T22:14:24.300Z,0.00
2023-01-21T22:16:52.239Z,-0.10
2023-01-21T22:19:19.634Z,-0.10
2023-01-21T22:21:47.769Z,-0.10
2023-01-21T22:24:16.224Z,-0.20
2023-01-21T22:26:43.705Z,-0.10
2023-01-21T22:29:12.105Z,-0.10
2023-01-21T22:31:39.529Z,-0.10
2023-01-21T22:34:07.168Z,-0.10
2023-01-21T22:36:34.510Z,-0.10
2023-01-21T22:39:02.320Z,-0.10
2023-01-21T22:41:29.750Z,-0.10
2023-01-21T22:43:57.639Z,-0.10
2023-01-21T22:46:29.541Z,-0.10
2023-01-21T22:48:58.455Z,-0.10
2023-01-21T22:51:26.941Z,-0.10
2023-01-21T22:53:54.899Z,-0.10
2023-01-21T22:56:39.865Z,0.00
2023-01-21T22:59:12.077Z,0.00
2023-01-21T23:01:39.529Z,0.00
2023-01-21T23:04:07.173Z,0.00
2023-01-21T23:06:36.144Z,0.00
2023-01-21T23:09:05.063Z,0.00
2023-01-21T23:11:33.944Z,0.00
2023-01-21T23:14:01.123Z,0.00
2023-01-21T23:16:28.498Z,0.00
2023-01-21T23:18:56.012Z,0.00
2023-01-21T23:21:23.332Z,-0.10
2023-01-21T23:23:50.869Z,-0.10
2023-01-21T23:26:20.285Z,-0.10
2023-01-21T23:28:47.973Z,0.00
2023-01-21T23:31:17.155Z,-0.10
2023-01-21T23:33:44.836Z,-0.10
2023-01-21T23:36:14.037Z,-0.10
2023-01-21T23:38:42.332Z,0.00
2023-01-21T23:41:12.400Z,0.00
2023-01-21T23:43:40.768Z,0.00
2023-01-21T23:46:12.045Z,-0.10
2023-01-21T23:48:39.959Z,0.00
2023-01-21T23:51:11.308Z,0.00
2023-01-21T23:53:38.895Z,0.00
2023-01-21T23:56:09.461Z,0.00
2023-01-21T23:58:36.932Z,0.00
